Punta Gorda, Florida
Current Conditions -  °F | °C
As of 8:53 AM on Sunday 25 Jan 2015 (Local Time) from KPGD Reporting Station
Clear Clear  
Wind Chill: 51°   Ceiling: Unl
Heat Index: 51°   Visibility: 10mi
Dew Point: 47°   Wind: 5mph
Humidity: 86%   Direction: 80°E
Pressure: 30.13"   Gusts: NA
Location:  26.93°N, 82.05°W
Report Text: KPGD 251353Z 08004KT 10SM CLR 11/08 A3013 RMK AO2 SLP203 T01060083 $
Loading
Personal Weather Stations






























Interactive Weather Map New forecast layout! Learn more

10-Day Weather Forecast

Advertisements
Track Severe Weather on mobile